VOE9ZE LEBB-LIPZ
Flight info
| Callsign | VOE9ZE |
|---|---|
| Flight time | N/A |
| Altitude | 30000 |
| Route | PPN DCT LATEK/N0444F360 DCT GONUP DCT TOU DCT GAI DCT MEN DCT NINUN DCT LATAM DCT ROMAM/N0448F370 DCT ETIDO DCT NEDRU DCT RILIP DCT EMMEF DCT LAPRI/N0441F360 DCT MOGBO/N0426F320 DCT OSKOR/N0430F340 DCT ADOSA/N0364F190 L612 ALBET |
| Aircraft | A320/M-SDFGIJ1RWY/LB1 |
Departure
| Time | 2026-05-06 11:39 |
|---|---|
| Airport | Bilbao Airport (LEBB) |
Arrival
| Time | N/A |
|---|---|
| Airport | Venice Marco Polo Airport (LIPZ) |
| Time | Latitude | Longitude | Altitude | Speed | Heading |
|---|---|---|---|---|---|
| 2026-05-06 11:14 | 43.30473 | -2.90736 | 153 ft | 0 kts | 26° |
| 2026-05-06 11:32 | 43.30463 | -2.90742 | 152 ft | 4 kts | 27° |
| 2026-05-06 11:33 | 43.30440 | -2.90760 | 150 ft | 4 kts | 34° |
| 2026-05-06 11:33 | 43.30419 | -2.90783 | 148 ft | 4 kts | 54° |
| 2026-05-06 11:33 | 43.30412 | -2.90811 | 146 ft | 2 kts | 114° |
| 2026-05-06 11:33 | 43.30412 | -2.90813 | 146 ft | 1 kts | 115° |
| 2026-05-06 11:34 | 43.30412 | -2.90812 | 146 ft | 0 kts | 115° |
| 2026-05-06 11:35 | 43.30405 | -2.90790 | 146 ft | 4 kts | 114° |
| 2026-05-06 11:35 | 43.30389 | -2.90742 | 146 ft | 7 kts | 114° |
| 2026-05-06 11:36 | 43.30359 | -2.90661 | 146 ft | 12 kts | 118° |
| 2026-05-06 11:36 | 43.30286 | -2.90565 | 143 ft | 18 kts | 144° |
| 2026-05-06 11:36 | 43.30169 | -2.90567 | 138 ft | 21 kts | 207° |
| 2026-05-06 11:36 | 43.30086 | -2.90484 | 137 ft | 16 kts | 117° |
| 2026-05-06 11:37 | 43.30032 | -2.90334 | 140 ft | 19 kts | 116° |
| 2026-05-06 11:37 | 43.29967 | -2.90158 | 140 ft | 23 kts | 118° |
| 2026-05-06 11:37 | 43.29890 | -2.89950 | 141 ft | 26 kts | 116° |
| 2026-05-06 11:37 | 43.29809 | -2.89736 | 139 ft | 22 kts | 117° |
| 2026-05-06 11:38 | 43.29730 | -2.89589 | 139 ft | 18 kts | 178° |
| 2026-05-06 11:38 | 43.29642 | -2.89728 | 137 ft | 23 kts | 250° |
| 2026-05-06 11:38 | 43.29736 | -2.90045 | 138 ft | 65 kts | 297° |
| 2026-05-06 11:38 | 43.30044 | -2.90881 | 128 ft | 129 kts | 297° |
| 2026-05-06 11:39 | 43.30517 | -2.92179 | 243 ft | 168 kts | 296° |
| 2026-05-06 11:39 | 43.31076 | -2.93693 | 719 ft | 185 kts | 297° |
| 2026-05-06 11:39 | 43.31667 | -2.95273 | 1534 ft | 186 kts | 297° |
| 2026-05-06 11:39 | 43.32277 | -2.96925 | 2055 ft | 203 kts | 297° |
| 2026-05-06 11:40 | 43.33094 | -2.98549 | 2644 ft | 209 kts | 315° |
| 2026-05-06 11:40 | 43.34172 | -2.99886 | 3582 ft | 209 kts | 317° |
| 2026-05-06 11:40 | 43.35280 | -3.01194 | 4411 ft | 209 kts | 318° |
| 2026-05-06 11:40 | 43.36378 | -3.02511 | 5285 ft | 211 kts | 316° |
| 2026-05-06 11:41 | 43.37478 | -3.03858 | 6119 ft | 213 kts | 317° |
| 2026-05-06 11:41 | 43.38579 | -3.05226 | 6862 ft | 214 kts | 316° |
| 2026-05-06 11:41 | 43.39723 | -3.06565 | 7497 ft | 221 kts | 326° |
| 2026-05-06 11:41 | 43.41272 | -3.07074 | 7835 ft | 245 kts | 5° |
| 2026-05-06 11:42 | 43.42839 | -3.06048 | 8416 ft | 262 kts | 42° |
| 2026-05-06 11:42 | 43.43781 | -3.03859 | 9089 ft | 274 kts | 69° |
| 2026-05-06 11:42 | 43.44350 | -3.01335 | 9806 ft | 277 kts | 65° |
| 2026-05-06 11:42 | 43.45371 | -2.99119 | 10472 ft | 276 kts | 45° |
| 2026-05-06 11:43 | 43.46708 | -2.97224 | 11193 ft | 277 kts | 39° |
| 2026-05-06 11:43 | 43.48134 | -2.95436 | 11871 ft | 278 kts | 37° |
| 2026-05-06 11:43 | 43.49550 | -2.93582 | 12501 ft | 285 kts | 48° |
| 2026-05-06 11:44 | 43.50745 | -2.88310 | 13489 ft | 312 kts | 96° |
| 2026-05-06 11:44 | 43.50090 | -2.85411 | 13892 ft | 323 kts | 116° |
| 2026-05-06 11:44 | 43.49123 | -2.82550 | 14478 ft | 327 kts | 115° |
| 2026-05-06 11:44 | 43.48182 | -2.79720 | 15090 ft | 331 kts | 115° |
| 2026-05-06 11:45 | 43.47220 | -2.76789 | 15726 ft | 333 kts | 114° |
| 2026-05-06 11:45 | 43.46271 | -2.73867 | 16340 ft | 336 kts | 114° |
| 2026-05-06 11:45 | 43.45317 | -2.70920 | 16926 ft | 338 kts | 114° |
| 2026-05-06 11:45 | 43.44353 | -2.67953 | 17502 ft | 341 kts | 114° |
| 2026-05-06 11:46 | 43.43377 | -2.64961 | 18073 ft | 344 kts | 114° |
| 2026-05-06 11:46 | 43.42393 | -2.61950 | 18632 ft | 346 kts | 114° |
| 2026-05-06 11:46 | 43.41400 | -2.58920 | 19173 ft | 349 kts | 114° |
| 2026-05-06 11:46 | 43.40394 | -2.55863 | 19704 ft | 352 kts | 114° |
| 2026-05-06 11:47 | 43.39379 | -2.52789 | 20227 ft | 354 kts | 114° |
| 2026-05-06 11:47 | 43.38356 | -2.49696 | 20758 ft | 356 kts | 114° |
| 2026-05-06 11:47 | 43.37324 | -2.46583 | 21257 ft | 359 kts | 114° |
| 2026-05-06 11:47 | 43.36286 | -2.43450 | 21758 ft | 361 kts | 114° |
| 2026-05-06 11:48 | 43.35246 | -2.40306 | 22254 ft | 363 kts | 114° |
| 2026-05-06 11:48 | 43.34197 | -2.37139 | 22724 ft | 365 kts | 114° |
| 2026-05-06 11:48 | 43.33141 | -2.33948 | 23181 ft | 368 kts | 114° |
| 2026-05-06 11:48 | 43.32055 | -2.30758 | 23640 ft | 370 kts | 118° |
| 2026-05-06 11:49 | 43.30635 | -2.27811 | 24084 ft | 372 kts | 130° |
| 2026-05-06 11:49 | 43.28810 | -2.25241 | 24273 ft | 382 kts | 141° |
| 2026-05-06 11:49 | 43.26652 | -2.23026 | 24408 ft | 393 kts | 145° |
| 2026-05-06 11:49 | 43.24406 | -2.20786 | 24538 ft | 405 kts | 145° |
| 2026-05-06 11:50 | 43.22095 | -2.18488 | 24667 ft | 416 kts | 145° |
| 2026-05-06 11:50 | 43.19724 | -2.16127 | 24798 ft | 426 kts | 145° |
| 2026-05-06 11:50 | 43.17317 | -2.13723 | 25037 ft | 431 kts | 145° |
| 2026-05-06 11:50 | 43.14882 | -2.11288 | 25363 ft | 434 kts | 145° |
| 2026-05-06 11:51 | 43.12436 | -2.08841 | 25701 ft | 437 kts | 145° |
| 2026-05-06 11:51 | 43.09974 | -2.06384 | 26033 ft | 439 kts | 145° |
| 2026-05-06 11:51 | 43.07498 | -2.03920 | 26376 ft | 442 kts | 146° |
| 2026-05-06 11:51 | 43.04972 | -2.01415 | 26716 ft | 443 kts | 146° |
| 2026-05-06 11:52 | 43.02501 | -1.98962 | 27030 ft | 445 kts | 146° |
| 2026-05-06 11:52 | 42.99991 | -1.96465 | 27330 ft | 447 kts | 146° |